Time;durP1;ratioP1;P1;durP2;ratioP2;P2;SDS_P1;SDS_P2;PMS_P1;PMS_P2;Temp;Humidity;BMP_temperature;BMP_pressure;BME280_temperature;BME280_humidity;BME280_pressure;Samples;Min_cycle;Max_cycle;Signal;HPM_P1;HPM_P2
2022/07/29 00:13:19;;;;;;;;;;;;;;;19.57;66.68;101267.06;5099787;28;1436;-95
2022/07/29 05:14:13;;;;;;;;;;;;;;;18.76;65.44;101319.81;5018582;28;1116;-95
2022/07/29 05:16:43;;;;;;;;;;;;;;;18.76;65.39;101325.28;5003334;28;1879;-95
2022/07/29 05:33:48;;;;;;;;;;;;;;;18.73;65.65;101328.50;5080695;22;1931;-94
2022/07/29 05:36:15;;;;;;;;;;;;;;;18.73;65.54;101334.81;5020667;28;1956;-95
2022/07/29 05:47:00;;;;;;;;;;;;;;;18.70;65.32;101329.81;5006287;28;1407;-95
2022/07/29 05:52:48;;;;;;;;;;;;;;;18.69;65.35;101330.09;4998593;28;1341;-94
2022/07/29 05:58:03;;;;;;;;;;;;;;;18.69;65.55;101324.63;4964076;28;1986;-92
2022/07/29 06:00:30;;;;;;;;;;;;;;;18.69;65.48;101327.38;4982626;28;3577;-94
2022/07/29 06:02:56;;;;;;;;;;;;;;;18.68;65.50;101329.28;4972235;28;3164;-94
2022/07/29 06:05:22;;;;;;;;;;;;;;;18.69;65.29;101324.63;4954170;28;3122;-93
2022/07/29 06:07:49;;;;;;;;;;;;;;;18.68;65.09;101325.69;4959468;28;4287;-95
2022/07/29 06:10:16;;;;;;;;;;;;;;;18.67;65.40;101321.31;4958730;28;3552;-93
2022/07/29 06:12:42;;;;;;;;;;;;;;;18.68;65.48;101331.16;4953625;28;2079;-92
2022/07/29 06:15:09;;;;;;;;;;;;;;;18.67;65.36;101332.25;4969498;28;1967;-93
2022/07/29 06:17:35;;;;;;;;;;;;;;;18.67;65.20;101327.59;4951438;28;2840;-94
2022/07/29 06:20:02;;;;;;;;;;;;;;;18.66;65.26;101331.44;4975322;28;3914;-93
2022/07/29 06:22:28;;;;;;;;;;;;;;;18.66;65.35;101331.44;4947255;28;2077;-93
2022/07/29 06:35:44;;;;;;;;;;;;;;;18.65;65.35;101335.25;6095406;22;2202;-94
2022/07/29 06:38:12;;;;;;;;;;;;;;;18.66;65.18;101333.34;4974356;28;3181;-93
2022/07/29 06:46:20;;;;;;;;;;;;;;;18.65;65.32;101350.75;5086185;22;3729;-95
2022/07/29 06:54:16;;;;;;;;;;;;;;;18.64;65.08;101354.56;5018067;28;1165;-95
2022/07/29 07:15:58;;;;;;;;;;;;;;;18.62;65.17;101346.66;5067678;22;2246;-94
2022/07/29 08:05:18;;;;;;;;;;;;;;;18.64;64.87;101349.94;5028564;28;968;-96
2022/07/29 08:17:10;;;;;;;;;;;;;;;18.63;64.90;101347.47;5018166;28;1886;-95
2022/07/29 08:28:03;;;;;;;;;;;;;;;18.65;64.86;101343.44;4994189;28;1760;-93
2022/07/29 09:02:34;;;;;;;;;;;;;;;18.70;64.76;101331.72;4977264;29;996;-95
2022/07/29 09:05:01;;;;;;;;;;;;;;;18.70;65.00;101331.72;4977376;28;1174;-94
2022/07/29 09:19:29;;;;;;;;;;;;;;;18.73;64.84;101328.50;5021815;28;1410;-93
2022/07/29 09:22:01;;;;;;;;;;;;;;;18.74;64.88;101330.19;5034646;28;1154;-94
2022/07/29 09:24:28;;;;;;;;;;;;;;;18.73;64.80;101334.81;5021754;28;1212;-96
2022/07/29 09:29:48;;;;;;;;;;;;;;;18.74;64.86;101330.19;5015843;28;1721;-96
2022/07/29 09:41:01;;;;;;;;;;;;;;;18.76;64.86;101315.19;5029221;28;1495;-94
2022/07/29 09:46:22;;;;;;;;;;;;;;;18.77;65.00;101313.31;5037236;28;1008;-96
2022/07/29 09:59:53;;;;;;;;;;;;;;;18.80;64.96;101302.69;5038343;28;989;-94
2022/07/29 10:02:29;;;;;;;;;;;;;;;18.80;64.89;101304.59;5020618;28;1288;-95
2022/07/29 10:10:21;;;;;;;;;;;;;;;18.81;65.07;101307.06;5034959;28;988;-94
2022/07/29 10:12:56;;;;;;;;;;;;;;;18.82;65.05;101302.44;5019679;28;1346;-95
2022/07/29 10:20:56;;;;;;;;;;;;;;;18.85;65.19;101299.19;5012873;28;910;-94
2022/07/29 10:23:36;;;;;;;;;;;;;;;18.86;65.15;101302.75;5018399;28;1007;-96
2022/07/29 10:29:14;;;;;;;;;;;;;;;18.90;65.34;101301.16;4998612;28;948;-96
2022/07/29 10:35:16;;;;;;;;;;;;;;;18.89;65.18;101300.34;4997625;28;1086;-95
2022/07/29 10:38:09;;;;;;;;;;;;;;;18.89;65.25;101289.41;4994345;28;1876;-93
2022/07/29 10:43:51;;;;;;;;;;;;;;;18.90;65.10;101288.31;5000841;28;1643;-95
2022/07/29 10:46:20;;;;;;;;;;;;;;;18.91;65.17;101300.88;4999147;28;1447;-95
2022/07/29 10:48:49;;;;;;;;;;;;;;;18.94;65.12;101291.34;4991636;28;1338;-94
2022/07/29 10:56:54;;;;;;;;;;;;;;;18.96;65.32;101286.47;5016782;28;1958;-95
2022/07/29 10:59:22;;;;;;;;;;;;;;;18.94;65.27;101284.03;4998260;28;1266;-94
2022/07/29 11:01:51;;;;;;;;;;;;;;;18.97;65.41;101285.38;4996227;28;1338;-96
2022/07/29 11:07:03;;;;;;;;;;;;;;;18.98;65.50;101282.41;4992956;28;1748;-94
2022/07/29 11:09:31;;;;;;;;;;;;;;;18.99;65.35;101286.78;4993205;28;1297;-94
2022/07/29 11:11:58;;;;;;;;;;;;;;;19.00;65.52;101282.13;4992540;28;1301;-93
2022/07/29 11:14:24;;;;;;;;;;;;;;;19.00;65.36;101283.00;4990818;28;1378;-95
2022/07/29 11:16:51;;;;;;;;;;;;;;;19.01;65.44;101278.34;4998974;28;1918;-94
2022/07/29 11:19:18;;;;;;;;;;;;;;;19.02;65.26;101271.78;5012560;28;1521;-94
2022/07/29 11:21:52;;;;;;;;;;;;;;;19.04;65.61;101275.91;5013887;28;1174;-96
2022/07/29 11:24:20;;;;;;;;;;;;;;;19.05;65.35;101277.56;5014898;28;1670;-94
2022/07/29 11:26:52;;;;;;;;;;;;;;;19.05;65.42;101274.81;5033283;28;1239;-94
2022/07/29 11:29:26;;;;;;;;;;;;;;;19.06;65.67;101264.75;5000491;28;1505;-95
2022/07/29 11:31:55;;;;;;;;;;;;;;;19.06;65.70;101268.31;5016245;28;1635;-93
2022/07/29 11:34:22;;;;;;;;;;;;;;;19.07;65.69;101271.84;5010641;28;1311;-95
2022/07/29 11:36:50;;;;;;;;;;;;;;;19.07;65.09;101277.31;5008145;28;3666;-95
2022/07/29 11:39:17;;;;;;;;;;;;;;;19.10;65.50;101278.69;4998281;28;1914;-93
2022/07/29 11:41:44;;;;;;;;;;;;;;;19.11;65.80;101267.50;5006113;28;1962;-93
2022/07/29 11:44:11;;;;;;;;;;;;;;;19.12;65.44;101271.06;4990777;28;1510;-95
2022/07/29 11:46:38;;;;;;;;;;;;;;;19.14;65.24;101271.63;5016530;28;1325;-94
2022/07/29 11:49:04;;;;;;;;;;;;;;;19.11;65.21;101263.97;5014226;28;1255;-94
2022/07/29 11:51:31;;;;;;;;;;;;;;;19.13;65.48;101259.06;5014730;28;1295;-94
2022/07/29 11:53:58;;;;;;;;;;;;;;;19.14;65.32;101263.44;5007719;28;1424;-93
2022/07/29 11:56:24;;;;;;;;;;;;;;;19.16;65.41;101264.00;5008508;28;1240;-93
2022/07/29 11:58:51;;;;;;;;;;;;;;;19.15;65.61;101263.19;5010389;28;1954;-94
2022/07/29 12:01:18;;;;;;;;;;;;;;;19.16;65.38;101256.63;5013465;28;1383;-94
2022/07/29 12:03:44;;;;;;;;;;;;;;;19.19;65.52;101253.38;5013494;28;1726;-94
2022/07/29 12:06:12;;;;;;;;;;;;;;;19.20;65.70;101257.75;5013496;28;1285;-95
2022/07/29 12:08:40;;;;;;;;;;;;;;;19.21;65.84;101251.22;5016678;28;1326;-94
2022/07/29 12:11:11;;;;;;;;;;;;;;;19.22;65.63;101246.59;5016862;28;1849;-95
2022/07/29 12:13:38;;;;;;;;;;;;;;;19.23;65.74;101250.94;5010557;28;1325;-94
2022/07/29 12:16:05;;;;;;;;;;;;;;;19.24;65.91;101247.16;4992846;28;1346;-95
2022/07/29 12:18:32;;;;;;;;;;;;;;;19.25;65.86;101251.53;5004495;28;1944;-94
2022/07/29 12:20:58;;;;;;;;;;;;;;;19.25;65.33;101249.63;5011938;28;1415;-95
2022/07/29 12:23:25;;;;;;;;;;;;;;;19.26;65.88;101248.50;5015008;28;1423;-95
2022/07/29 12:25:52;;;;;;;;;;;;;;;19.27;65.54;101249.38;5011463;28;1544;-95
2022/07/29 12:28:24;;;;;;;;;;;;;;;19.29;65.82;101256.22;5014594;28;1209;-94
2022/07/29 12:30:50;;;;;;;;;;;;;;;19.32;65.80;101254.03;5009925;28;1446;-94
2022/07/29 12:33:21;;;;;;;;;;;;;;;19.32;65.67;101252.13;5014954;28;1216;-95
2022/07/29 12:35:47;;;;;;;;;;;;;;;19.32;65.93;101249.38;5010608;28;1277;-94
2022/07/29 12:38:14;;;;;;;;;;;;;;;19.33;65.92;101251.06;5012305;28;1883;-94
2022/07/29 12:40:41;;;;;;;;;;;;;;;19.35;66.05;101251.59;5009964;28;1324;-95
2022/07/29 12:43:09;;;;;;;;;;;;;;;19.37;65.41;101251.34;5012699;28;1474;-96
2022/07/29 12:45:35;;;;;;;;;;;;;;;19.40;66.09;101250.81;5012668;28;1300;-94
2022/07/29 12:48:02;;;;;;;;;;;;;;;19.40;65.79;101251.63;5012283;28;1257;-94
2022/07/29 12:50:29;;;;;;;;;;;;;;;19.41;66.07;101247.84;5014604;28;1328;-95
2022/07/29 12:52:55;;;;;;;;;;;;;;;19.40;65.58;101245.34;5013505;28;1387;-95
2022/07/29 12:55:22;;;;;;;;;;;;;;;19.41;65.51;101252.47;5016269;28;1457;-95
2022/07/29 12:57:49;;;;;;;;;;;;;;;19.44;65.49;101255.50;5026015;28;1891;-94
2022/07/29 13:00:16;;;;;;;;;;;;;;;19.47;65.91;101248.69;5009175;28;1383;-94
2022/07/29 13:02:44;;;;;;;;;;;;;;;19.46;65.78;101245.13;5010651;28;1434;-95
2022/07/29 13:05:10;;;;;;;;;;;;;;;19.47;65.66;101238.59;5011772;28;1616;-94
2022/07/29 13:07:37;;;;;;;;;;;;;;;19.48;65.96;101237.50;5009314;28;1229;-94
2022/07/29 13:10:04;;;;;;;;;;;;;;;19.49;65.37;101233.66;5007303;28;1479;-93
2022/07/29 13:12:31;;;;;;;;;;;;;;;19.52;65.68;101237.78;5022761;28;1397;-94
2022/07/29 13:15:00;;;;;;;;;;;;;;;19.52;65.80;101235.88;5003968;28;1454;-95
2022/07/29 13:17:27;;;;;;;;;;;;;;;19.55;66.12;101234.53;5011190;28;2385;-93
2022/07/29 13:22:39;;;;;;;;;;;;;;;19.59;66.08;101243.88;5029090;28;1361;-93
2022/07/29 13:25:06;;;;;;;;;;;;;;;19.59;66.17;101238.41;5005080;28;3607;-94
2022/07/29 13:27:33;;;;;;;;;;;;;;;19.62;66.02;101234.28;5012836;28;1297;-95
2022/07/29 13:30:00;;;;;;;;;;;;;;;19.63;66.34;101236.78;5011227;28;1246;-94
2022/07/29 13:32:27;;;;;;;;;;;;;;;19.64;65.86;101232.13;5027193;28;858;-94
2022/07/29 13:34:54;;;;;;;;;;;;;;;19.65;65.82;101236.56;5005383;28;1951;-94
2022/07/29 13:37:20;;;;;;;;;;;;;;;19.66;65.87;101230.00;5008510;28;1331;-93
2022/07/29 13:39:49;;;;;;;;;;;;;;;19.67;66.03;101243.38;5009311;28;1984;-95
2022/07/29 13:42:16;;;;;;;;;;;;;;;19.70;65.99;101231.91;5010876;28;1466;-94
2022/07/29 13:44:43;;;;;;;;;;;;;;;19.74;65.85;101237.69;5008388;28;1233;-93
2022/07/29 13:47:09;;;;;;;;;;;;;;;19.77;66.36;101231.72;5002307;28;1346;-94
2022/07/29 13:49:36;;;;;;;;;;;;;;;19.80;65.98;101239.38;4995887;28;2281;-93
2022/07/29 13:52:03;;;;;;;;;;;;;;;19.83;66.13;101240.75;4999563;28;3380;-94
2022/07/29 13:54:29;;;;;;;;;;;;;;;19.84;66.31;101235.00;5023834;28;3858;-93
2022/07/29 13:56:56;;;;;;;;;;;;;;;19.86;66.11;101230.13;5005364;28;1348;-95
2022/07/29 13:59:23;;;;;;;;;;;;;;;19.87;66.23;101230.94;5006475;28;3848;-94
2022/07/29 14:01:49;;;;;;;;;;;;;;;19.88;66.42;101229.84;4996071;28;1416;-93
2022/07/29 14:04:16;;;;;;;;;;;;;;;19.90;66.29;101227.66;5008317;28;3427;-93
2022/07/29 14:06:42;;;;;;;;;;;;;;;19.92;66.42;101229.06;5002065;28;1252;-93
2022/07/29 14:09:09;;;;;;;;;;;;;;;19.95;66.24;101227.69;4985454;28;1406;-93
2022/07/29 14:11:38;;;;;;;;;;;;;;;19.97;66.29;101214.56;5010021;28;4591;-95
2022/07/29 14:14:04;;;;;;;;;;;;;;;19.97;66.23;101217.31;4991022;28;3539;-92
2022/07/29 14:16:31;;;;;;;;;;;;;;;20.00;66.40;101224.16;5014248;28;3620;-93
2022/07/29 14:21:43;;;;;;;;;;;;;;;20.02;66.57;101224.72;4996297;28;2015;-94
2022/07/29 14:24:09;;;;;;;;;;;;;;;20.04;66.82;101220.63;4979695;28;1612;-93
2022/07/29 14:26:36;;;;;;;;;;;;;;;20.05;66.47;101218.72;4981886;28;1454;-95
2022/07/29 14:29:02;;;;;;;;;;;;;;;20.05;66.52;101222.25;4982196;28;3799;-92
2022/07/29 14:31:28;;;;;;;;;;;;;;;20.07;66.44;101219.28;4999040;28;2047;-92
2022/07/29 14:33:55;;;;;;;;;;;;;;;20.08;66.57;101224.47;4976288;28;3551;-93
2022/07/29 14:36:21;;;;;;;;;;;;;;;20.09;66.63;101217.94;4983196;28;1971;-94
2022/07/29 14:38:48;;;;;;;;;;;;;;;20.10;66.74;101219.56;4974649;28;1918;-93
2022/07/29 14:41:14;;;;;;;;;;;;;;;20.13;66.81;101215.47;4966071;28;3686;-93
2022/07/29 14:43:42;;;;;;;;;;;;;;;20.15;66.53;101227.78;4977398;28;3497;-95
2022/07/29 14:46:10;;;;;;;;;;;;;;;20.15;66.82;101225.06;4984217;28;1773;-94
2022/07/29 14:48:36;;;;;;;;;;;;;;;20.18;66.90;101229.16;4984274;28;1311;-93
2022/07/29 14:51:18;;;;;;;;;;;;;;;20.20;66.63;101236.00;5149722;27;3710;-92
2022/07/29 14:53:45;;;;;;;;;;;;;;;20.22;66.64;101226.72;5117633;28;1230;-92
2022/07/29 14:56:12;;;;;;;;;;;;;;;20.23;66.77;101228.34;5112493;28;1514;-91
2022/07/29 14:58:41;;;;;;;;;;;;;;;20.23;66.66;101229.16;5148837;28;1330;-91
2022/07/29 15:01:11;;;;;;;;;;;;;;;20.26;66.85;101234.09;5152877;28;987;-92
2022/07/29 15:03:38;;;;;;;;;;;;;;;20.27;66.61;101232.22;5150781;28;1164;-91
2022/07/29 15:06:04;;;;;;;;;;;;;;;20.29;66.71;101233.56;5132335;28;1206;-91
2022/07/29 15:08:32;;;;;;;;;;;;;;;20.29;66.84;101228.09;5149590;28;1215;-91
2022/07/29 15:11:04;;;;;;;;;;;;;;;20.30;66.63;101224.28;5131615;28;1887;-94
2022/07/29 15:13:30;;;;;;;;;;;;;;;20.32;66.63;101233.03;5129103;28;1201;-89
2022/07/29 15:15:57;;;;;;;;;;;;;;;20.33;67.00;101221.03;5131160;28;1161;-92
2022/07/29 15:18:37;;;;;;;;;;;;;;;20.36;66.66;101222.41;5127232;28;1470;-90
2022/07/29 15:21:06;;;;;;;;;;;;;;;20.37;66.61;101227.59;5115247;28;1853;-92
2022/07/29 15:23:35;;;;;;;;;;;;;;;20.38;66.81;101225.66;5131329;28;1491;-92
2022/07/29 15:26:04;;;;;;;;;;;;;;;20.40;66.82;101226.22;5130682;27;1431;-91
2022/07/29 15:28:33;;;;;;;;;;;;;;;20.41;66.96;101223.25;5136720;28;1874;-91
2022/07/29 15:31:05;;;;;;;;;;;;;;;20.44;66.81;101221.84;5112116;28;1985;-92
2022/07/29 15:33:31;;;;;;;;;;;;;;;20.45;66.99;101217.22;5105708;28;1512;-91
2022/07/29 15:35:58;;;;;;;;;;;;;;;20.46;66.88;101216.13;5111508;28;2333;-92
2022/07/29 15:38:25;;;;;;;;;;;;;;;20.47;66.96;101217.75;5121887;28;3468;-91
2022/07/29 15:40:51;;;;;;;;;;;;;;;20.49;66.98;101226.53;5119025;28;1385;-90
2022/07/29 15:43:17;;;;;;;;;;;;;;;20.52;66.56;101215.03;5099637;27;3874;-90
2022/07/29 15:47:02;;;;;;;;;;;;;;;20.52;66.67;101218.63;5125421;28;5239;-93
2022/07/29 15:48:32;;;;;;;;;;;;;;;20.55;66.54;101214.53;5116944;28;3478;-89
2022/07/29 15:50:59;;;;;;;;;;;;;;;20.56;66.70;101222.47;5094787;28;3237;-91
2022/07/29 15:53:28;;;;;;;;;;;;;;;20.58;66.71;101220.28;5100236;28;1623;-91
2022/07/29 15:55:55;;;;;;;;;;;;;;;20.58;67.01;101216.72;5099703;28;2947;-90
2022/07/29 15:58:21;;;;;;;;;;;;;;;20.61;66.91;101218.91;5097088;28;3183;-91
2022/07/29 16:00:48;;;;;;;;;;;;;;;20.60;66.82;101223.56;5116421;28;2290;-92
2022/07/29 16:03:15;;;;;;;;;;;;;;;20.61;67.07;101214.25;5084671;28;1289;-91
2022/07/29 16:05:41;;;;;;;;;;;;;;;20.63;66.71;101219.47;5076121;28;1187;-90
2022/07/29 16:08:07;;;;;;;;;;;;;;;20.64;66.96;101224.66;5070741;28;3634;-91
2022/07/29 16:10:34;;;;;;;;;;;;;;;20.66;66.63;101224.41;5072997;28;3300;-90
2022/07/29 16:13:00;;;;;;;;;;;;;;;20.68;66.79;101214.03;5093339;28;2660;-90
2022/07/29 16:15:27;;;;;;;;;;;;;;;20.70;67.15;101216.47;5102712;28;2953;-92
2022/07/29 16:17:53;;;;;;;;;;;;;;;20.71;66.75;101209.94;5079353;28;3685;-89
2022/07/29 16:20:20;;;;;;;;;;;;;;;20.72;67.02;101223.31;5084763;28;3549;-91
2022/07/29 16:22:47;;;;;;;;;;;;;;;20.73;66.96;101210.47;5091602;28;3520;-91
2022/07/29 16:25:14;;;;;;;;;;;;;;;20.74;67.09;101214.84;5069833;28;3555;-91
2022/07/29 16:27:40;;;;;;;;;;;;;;;20.76;66.92;101215.38;5068114;28;3386;-89
2022/07/29 16:30:06;;;;;;;;;;;;;;;20.77;66.76;101215.13;5068904;28;3854;-89
2022/07/29 16:32:33;;;;;;;;;;;;;;;20.79;66.93;101215.66;5085474;28;3450;-90
2022/07/29 16:35:01;;;;;;;;;;;;;;;20.79;66.99;101207.44;5067123;28;1362;-90
2022/07/29 16:37:32;;;;;;;;;;;;;;;20.80;67.01;101206.38;5092152;28;1368;-90
2022/07/29 16:39:58;;;;;;;;;;;;;;;20.82;67.19;101197.88;5082136;28;2681;-91
2022/07/29 16:42:25;;;;;;;;;;;;;;;20.82;67.27;101208.81;5078095;28;3602;-91
2022/07/29 16:44:51;;;;;;;;;;;;;;;20.82;67.19;101193.25;5087276;28;2519;-92
2022/07/29 16:47:18;;;;;;;;;;;;;;;20.83;67.17;101199.53;5085130;28;2014;-92
2022/07/29 16:52:26;;;;;;;;;;;;;;;20.85;67.31;101198.16;5089540;28;1387;-90
2022/07/29 16:54:57;;;;;;;;;;;;;;;20.86;67.13;101196.25;5105293;28;1443;-93
2022/07/29 17:03:00;;;;;;;;;;;;;;;20.89;67.19;101192.97;5090941;28;1118;-92
2022/07/29 17:05:27;;;;;;;;;;;;;;;20.90;67.00;101193.78;5092190;28;1954;-91
2022/07/29 17:44:37;;;;;;;;;;;;;;;21.02;67.18;101191.59;4979855;28;1385;-95
2022/07/29 17:49:50;;;;;;;;;;;;;;;21.04;67.19;101189.41;4972132;28;1911;-94
2022/07/29 18:56:23;;;;;;;;;;;;;;;21.09;67.28;101183.94;4970066;28;1406;-95
2022/07/29 19:01:43;;;;;;;;;;;;;;;21.08;67.45;101187.75;4955509;29;1403;-94
2022/07/29 19:04:11;;;;;;;;;;;;;;;21.07;67.35;101180.63;4957047;29;1435;-94
2022/07/29 19:06:40;;;;;;;;;;;;;;;21.07;67.16;101178.72;4955230;29;1442;-91
2022/07/29 19:09:16;;;;;;;;;;;;;;;21.08;67.20;101179.53;4942360;29;2012;-94
2022/07/29 19:14:43;;;;;;;;;;;;;;;21.07;67.18;101180.63;4969945;29;1067;-96
2022/07/29 19:19:59;;;;;;;;;;;;;;;21.07;67.15;101186.13;4959478;29;1725;-95
2022/07/29 19:33:47;;;;;;;;;;;;;;;21.05;67.33;101180.09;5765508;23;2220;-95
2022/07/29 19:36:14;;;;;;;;;;;;;;;21.04;67.08;101187.47;4979015;28;1220;-96
2022/07/29 19:38:43;;;;;;;;;;;;;;;21.05;67.16;101191.84;4999544;28;1139;-96
2022/07/29 20:06:14;;;;;;;;;;;;;;;21.01;67.29;101203.66;5262244;23;3571;-94
2022/07/29 22:38:13;;;;;;;;;;;;;;;20.46;66.82;101181.38;5031384;23;3514;-95
2022/07/29 22:40:43;;;;;;;;;;;;;;;20.45;66.83;101181.66;4937707;29;1298;-96
2022/07/29 22:43:13;;;;;;;;;;;;;;;20.43;66.70;101180.00;4920204;29;1575;-94
2022/07/29 22:45:43;;;;;;;;;;;;;;;20.42;66.75;101177.56;4921184;29;1182;-95
2022/07/29 22:48:10;;;;;;;;;;;;;;;20.41;66.76;101174.00;4934281;29;885;-95
2022/07/29 22:50:41;;;;;;;;;;;;;;;20.41;66.62;101181.34;4934405;29;1958;-95
2022/07/29 22:53:15;;;;;;;;;;;;;;;20.40;66.39;101177.00;4937413;29;1515;-95
2022/07/29 22:55:46;;;;;;;;;;;;;;;20.39;66.61;101175.34;4925875;29;1512;-95
2022/07/29 22:58:14;;;;;;;;;;;;;;;20.38;66.36;101179.16;4957239;29;1450;-95
2022/07/29 23:03:29;;;;;;;;;;;;;;;20.36;66.55;101178.63;4976219;28;968;-94
